Latest Weather Observations for Jacup

IDW60801

Issued at 1:32 pm WST Monday 8 February 2016 (issued every 30 minutes, with the page automatically refreshed every 10 minutes)

About weather observations | Map of weather stations | Latest weather observations for WA | Other Formats
Station Details ID: 010905 Name: JACUP Lat: -33.89 Lon: 119.11 Height: 305.0 m
Data from the previous 72 hours. | See also: Recent months at Jacup
Date/Time
WST
Temp
°C
App
Temp
°C
Dew
Point
Rel
Hum
%
Delta-T
°C
Wind Press
QNH
hPa
Press
MSL
hPa
Rain
since 9 am
mm
Dir
 
Spd
km/h
Gust
km/h
Spd
kts
Gust
kts
08/01:30pm 35.8 31.5 7.0 17 16.1 NE 19 30 10 16 1019.0 1017.9 0.0
08/01:00pm 35.8 31.9 7.0 17 16.1 ENE 17 32 9 17 1019.4 1018.3 0.0
08/12:30pm 34.5 32.0 6.7 18 15.4 NNE 9 17 5 9 1019.6 1018.5 0.0
08/12:00pm 35.3 31.5 7.4 18 15.7 NNE 17 26 9 14 1020.0 1018.9 0.0
08/11:30am 34.8 31.2 8.5 20 15.0 NE 17 33 9 18 1020.3 1019.2 0.0
08/11:00am 33.5 29.5 8.2 21 14.3 NNE 19 30 10 16 1020.6 1019.5 0.0
08/10:30am 32.5 28.2 8.0 22 13.8 N 20 33 11 18 1021.1 1019.9 0.0
08/10:00am 32.4 28.3 8.6 23 13.4 NNE 20 35 11 19 1021.2 1020.0 0.0
08/09:30am 31.0 26.3 9.3 26 12.3 N 24 35 13 19 1021.2 1020.0 0.0
08/09:00am 29.0 24.0 9.7 30 10.9 NNE 26 35 14 19 1021.3 1020.1 0.0
08/08:30am 27.5 23.3 11.1 36 9.5 N 24 35 13 19 1021.3 1020.1 0.0
08/08:00am 24.8 21.1 12.7 47 7.1 N 24 33 13 18 1021.4 1020.2 0.0
08/07:30am 22.7 20.8 14.3 59 5.0 NNE 17 28 9 15 1021.4 1020.2 0.0
08/07:00am 20.4 20.1 16.4 78 2.4 NE 13 19 7 10 1021.4 1020.2 0.0
08/06:30am 16.8 18.9 16.2 96 0.4 CALM 0 0 0 0 1021.3 1020.1 0.0
08/06:00am 15.2 16.7 14.6 96 0.3 CALM 0 0 0 0 1021.2 1020.0 0.0
08/05:30am 15.6 15.5 15.0 96 0.4 E 9 11 5 6 1021.1 1019.9 0.0
08/05:00am 15.8 15.8 15.2 96 0.4 E 9 13 5 7 1020.9 1019.7 0.0
08/04:30am 15.9 15.5 15.3 96 0.4 E 11 13 6 7 1020.5 1019.4 0.0
08/04:00am 16.4 15.5 15.8 96 0.4 E 15 19 8 10 1020.4 1019.3 0.0
08/03:30am 16.6 15.4 16.0 96 0.4 E 17 20 9 11 1020.3 1019.2 0.0
08/03:00am 16.7 16.2 15.9 95 0.5 E 13 20 7 11 1020.3 1019.2 0.0
08/02:30am 16.9 15.7 16.1 95 0.5 E 17 24 9 13 1020.3 1019.2 0.0
08/02:00am 17.0 15.8 16.2 95 0.5 E 17 24 9 13 1020.5 1019.4 0.0
08/01:30am 17.2 16.0 16.2 94 0.6 E 17 24 9 13 1020.7 1019.6 0.0
08/01:00am 17.4 15.9 16.4 94 0.6 E 19 26 10 14 1021.1 1019.9 0.0
08/12:30am 17.3 14.9 16.3 94 0.6 E 24 33 13 18 1021.1 1019.9 0.0
08/12:00am 17.3 15.6 16.2 93 0.7 E 20 30 11 16 1021.3 1020.1 0.0
 
Date/Time
WST
Temp
°C
App
Temp
°C
Dew
Point
Rel
Hum
%
Delta-T
°C
Wind Press
QNH
hPa
Press
MSL
hPa
Rain
since 9 am
mm
Dir
 
Spd
km/h
Gust
km/h
Spd
kts
Gust
kts
07/11:30pm 17.1 15.3 15.6 91 0.9 ESE 19 26 10 14 1021.6 1020.4 0.0
07/11:00pm 17.2 15.4 15.9 92 0.8 ESE 20 30 11 16 1021.8 1020.7 0.0
07/10:30pm 17.3 15.7 16.0 92 0.8 ESE 19 26 10 14 1021.9 1020.8 0.0
07/10:00pm 17.4 16.1 15.9 91 0.9 ESE 17 24 9 13 1022.1 1021.0 0.0
07/09:30pm 17.5 16.2 15.8 90 1.0 ESE 17 20 9 11 1022.1 1021.0 0.0
07/09:00pm 17.6 16.6 15.6 88 1.2 ESE 15 20 8 11 1021.9 1020.8 0.0
07/08:30pm 18.0 16.0 15.6 86 1.4 ESE 20 28 11 15 1021.5 1020.3 0.0
07/08:00pm 18.5 16.7 15.4 82 1.8 ESE 19 26 10 14 1021.2 1020.0 0.0
07/07:30pm 19.0 16.4 14.9 77 2.4 ESE 22 30 12 16 1021.0 1019.8 0.0
07/07:00pm 20.2 18.0 14.3 69 3.5 ESE 19 28 10 15 1020.7 1019.6 0.0
07/06:30pm 21.4 18.2 14.3 64 4.2 ESE 24 33 13 18 1020.3 1019.2 0.0
07/06:00pm 22.4 18.4 14.0 59 5.0 SE 28 35 15 19 1019.8 1018.7 0.0
07/05:30pm 23.5 20.3 15.3 60 5.0 SE 26 35 14 19 1019.5 1018.4 0.0
07/05:00pm 25.4 22.3 15.7 55 6.0 ESE 26 35 14 19 1019.2 1018.1 0.0
07/04:30pm 26.9 24.4 16.2 52 6.7 ESE 24 33 13 18 1018.9 1017.8 0.0
07/04:00pm 28.0 25.7 16.6 50 7.2 ESE 24 33 13 18 1018.7 1017.5 0.0
07/03:30pm 29.5 27.4 16.3 45 8.3 ESE 22 32 12 17 1018.7 1017.5 0.0
07/03:00pm 29.6 27.3 15.7 43 8.7 ESE 22 33 12 18 1018.8 1017.6 0.0
07/02:30pm 30.6 28.7 15.8 40 9.3 ESE 20 30 11 16 1018.8 1017.6 0.0
07/02:00pm 30.4 28.5 15.7 41 9.2 ESE 20 30 11 16 1018.8 1017.6 0.0
07/01:30pm 31.1 29.2 15.1 38 10.0 ESE 19 26 10 14 1019.0 1017.9 0.0
07/01:00pm 31.1 29.7 13.4 34 10.7 E 13 26 7 14 1019.3 1018.2 0.0
07/12:30pm 29.7 28.2 13.0 35 10.0 NE 13 24 7 13 1019.8 1018.7 0.0
07/12:00pm 29.0 27.7 14.8 42 8.7 ENE 15 26 8 14 1020.0 1018.9 0.0
07/11:30am 27.0 25.3 14.7 47 7.5 E 17 28 9 15 1020.3 1019.2 0.0
07/11:00am 26.4 24.7 14.8 49 7.0 ENE 17 26 9 14 1020.7 1019.6 0.0
07/10:30am 25.4 24.1 14.8 52 6.4 E 15 30 8 16 1020.9 1019.7 0.0
07/10:00am 24.2 22.6 15.1 56 5.5 E 17 24 9 13 1021.0 1019.8 0.0
07/09:30am 23.2 21.3 15.3 61 4.8 E 19 26 10 14 1021.2 1020.0 0.0
07/09:00am 21.6 19.6 15.0 66 3.9 E 19 26 10 14 1021.4 1020.2 0.0
07/08:30am 21.0 18.9 15.1 69 3.5 ESE 20 28 11 15 1021.4 1020.2 0.0
07/08:00am 19.0 17.4 15.1 78 2.3 ESE 17 24 9 13 1021.5 1020.3 0.0
07/07:30am 18.0 15.8 14.9 82 1.8 ESE 20 26 11 14 1021.4 1020.2 0.0
07/07:00am 17.3 15.2 14.8 85 1.5 E 19 26 10 14 1021.3 1020.1 0.0
07/06:30am 16.8 15.5 14.8 88 1.2 E 15 22 8 12 1021.0 1019.8 0.0
07/06:00am 16.3 15.1 15.0 92 0.8 ESE 15 20 8 11 1020.7 1019.6 0.0
07/05:30am 15.8 14.8 14.5 92 0.8 ESE 13 17 7 9 1020.5 1019.4 0.0
07/05:00am 16.5 15.3 15.0 91 0.9 ESE 15 19 8 10 1020.2 1019.1 0.0
07/04:30am 16.8 15.4 15.5 92 0.8 ESE 17 20 9 11 1019.9 1018.8 0.0
07/04:00am 16.6 15.9 15.3 92 0.8 SE 13 19 7 10 1019.7 1018.6 0.0
07/03:30am 16.8 15.7 15.3 91 0.9 SE 15 20 8 11 1019.5 1018.4 0.0
07/03:00am 17.1 15.8 14.7 86 1.4 ESE 15 19 8 10 1019.9 1018.8 0.0
07/02:30am 17.3 15.9 14.4 83 1.7 ESE 15 22 8 12 1020.0 1018.9 0.0
07/02:00am 17.4 15.8 13.9 80 2.0 ESE 15 20 8 11 1020.0 1018.9 0.0
07/01:30am 17.4 15.4 13.9 80 2.0 ESE 17 24 9 13 1019.9 1018.8 0.0
07/01:00am 17.2 15.7 14.3 83 1.7 SE 15 22 8 12 1020.1 1019.0 0.0
07/12:30am 17.2 15.1 14.7 85 1.5 SE 19 26 10 14 1020.3 1019.2 0.0
07/12:00am 17.2 15.5 14.8 86 1.4 SE 17 24 9 13 1020.3 1019.2 0.0
 
Date/Time
WST
Temp
°C
App
Temp
°C
Dew
Point
Rel
Hum
%
Delta-T
°C
Wind Press
QNH
hPa
Press
MSL
hPa
Rain
since 9 am
mm
Dir
 
Spd
km/h
Gust
km/h
Spd
kts
Gust
kts
06/11:30pm 17.0 14.6 14.5 85 1.5 SE 20 28 11 15 1020.5 1019.4 0.0
06/11:00pm 16.7 14.2 14.2 85 1.4 SE 20 30 11 16 1020.6 1019.5 0.0
06/10:30pm 17.0 14.6 14.5 85 1.5 SE 20 30 11 16 1020.7 1019.6 0.0
06/10:00pm 17.0 14.8 14.3 84 1.6 SE 19 28 10 15 1020.9 1019.7 0.0
06/09:30pm 17.0 14.6 14.3 84 1.6 SSE 20 32 11 17 1020.7 1019.6 0.0
06/09:00pm 17.0 14.3 14.5 85 1.5 SSE 22 30 12 16 1020.6 1019.5 0.0
06/08:30pm 17.3 14.6 13.6 79 2.1 SE 20 32 11 17 1020.4 1019.3 0.0
06/08:00pm 17.8 14.1 13.9 78 2.2 SE 26 35 14 19 1020.0 1018.9 0.0
06/07:30pm 17.9 14.6 14.0 78 2.3 SE 24 32 13 17 1019.7 1018.6 0.0
06/07:00pm 18.3 14.6 14.0 76 2.5 SE 26 35 14 19 1019.4 1018.3 0.0
06/06:30pm 18.8 14.8 14.1 74 2.7 SSE 28 37 15 20 1019.3 1018.2 0.0
06/06:00pm 19.8 16.2 14.2 70 3.3 SE 26 39 14 21 1018.8 1017.6 0.0
06/05:30pm 20.5 16.7 14.6 69 3.5 SE 28 39 15 21 1018.4 1017.2 0.0
06/05:00pm 22.0 18.3 14.9 64 4.2 SSE 28 43 15 23 1018.0 1016.8 0.0
06/04:30pm 24.2 21.6 14.9 56 5.6 SSE 22 35 12 19 1017.7 1016.5 0.0
06/04:00pm 24.8 21.8 14.9 54 6.0 SSE 24 41 13 22 1017.6 1016.4 0.0
06/03:30pm 25.6 23.4 15.0 52 6.5 SSE 20 28 11 15 1017.6 1016.4 0.0
06/03:00pm 25.9 23.6 14.7 50 6.8 SSE 20 32 11 17 1017.6 1016.4 0.0
06/02:30pm 26.1 23.9 14.9 50 6.8 SSE 20 35 11 19 1017.6 1016.4 0.0
06/02:00pm 26.8 24.6 14.9 48 7.3 S 20 33 11 18 1017.6 1016.4 0.0
06/01:30pm 26.8 24.8 14.9 48 7.3 SSE 19 32 10 17 1017.8 1016.6 0.0
06/01:00pm 27.7 26.0 14.7 45 7.9 SE 17 26 9 14 1017.9 1016.7 0.0
06/12:30pm 27.6 25.7 14.3 44 8.1 SE 17 28 9 15 1017.9 1016.7 0.0
06/12:00pm 27.3 26.0 14.7 46 7.7 SE 15 24 8 13 1018.1 1016.9 0.0
06/11:30am 26.6 24.8 14.4 47 7.4 SE 17 24 9 13 1018.2 1017.0 0.0
06/11:00am 25.5 24.2 14.9 52 6.4 SE 15 26 8 14 1018.4 1017.2 0.0
06/10:30am 24.0 22.1 14.1 54 5.9 SE 17 28 9 15 1018.7 1017.5 0.0
06/10:00am 23.1 21.8 14.9 60 4.9 SSE 15 24 8 13 1018.7 1017.5 0.0
06/09:30am 22.5 20.9 15.1 63 4.5 SE 17 26 9 14 1018.8 1017.6 0.0
06/09:00am 20.9 18.7 14.8 68 3.6 SSE 20 28 11 15 1018.9 1017.8 0.0
06/08:30am 19.6 17.5 14.8 74 2.8 SSE 19 26 10 14 1019.0 1017.9 0.0
06/08:00am 18.9 17.0 15.2 79 2.2 S 19 30 10 16 1018.8 1017.6 0.0
06/07:30am 18.6 17.6 15.5 82 1.9 SE 15 20 8 11 1018.4 1017.2 0.0
06/07:00am 17.3 15.6 14.8 85 1.5 SSE 17 22 9 12 1018.5 1017.3 0.0
06/06:30am 17.2 16.1 15.2 88 1.2 SSE 15 20 8 11 1018.2 1017.0 0.0
06/06:00am 17.0 15.9 15.3 90 1.0 SSE 15 24 8 13 1018.0 1016.8 0.0
06/05:30am 16.6 15.4 15.1 91 0.9 S 15 20 8 11 1017.6 1016.4 0.0
06/05:00am 16.7 15.7 15.6 93 0.7 S 15 22 8 12 1017.3 1016.2 0.0
06/04:30am 16.7 16.2 15.9 95 0.5 S 13 19 7 10 1017.2 1016.1 0.0
06/04:00am 16.5 15.2 15.9 96 0.4 S 17 24 9 13 1016.9 1015.8 0.0
06/03:30am 16.5 14.9 15.9 96 0.4 SSW 19 26 10 14 1016.9 1015.8 0.0
06/03:00am 16.3 15.3 15.7 96 0.4 SSW 15 20 8 11 1016.6 1015.5 0.0
06/02:30am 16.2 15.1 15.4 95 0.5 SSW 15 20 8 11 1016.3 1015.2 0.0
06/02:00am 16.0 15.6 15.2 95 0.5 SSW 11 15 6 8 1016.3 1015.2 0.0
06/01:30am 16.2 16.6 15.2 94 0.6 S 7 15 4 8 1016.2 1015.1 0.0
06/01:00am 16.4 16.5 15.4 94 0.6 S 9 13 5 7 1016.5 1015.4 0.0
06/12:30am 15.9 16.1 14.8 93 0.6 S 7 13 4 7 1016.5 1015.4 0.0
06/12:00am 15.6 16.3 13.4 87 1.2 S 2 7 1 4 1016.8 1015.7 0.0
 
Date/Time
WST
Temp
°C
App
Temp
°C
Dew
Point
Rel
Hum
%
Delta-T
°C
Wind Press
QNH
hPa
Press
MSL
hPa
Rain
since 9 am
mm
Dir
 
Spd
km/h
Gust
km/h
Spd
kts
Gust
kts
05/11:30pm 15.7 15.2 12.8 83 1.6 S 7 11 4 6 1016.8 1015.7 0.0
05/11:00pm 16.3 14.9 11.0 71 2.9 S 9 17 5 9 1016.9 1015.8 0.0
05/10:30pm 16.1 15.6 9.5 65 3.5 SE 2 11 1 6 1016.7 1015.6 0.0
05/10:00pm 18.2 16.5 9.8 58 4.5 E 9 13 5 7 1016.6 1015.5 0.0
05/09:30pm 18.9 16.5 9.9 56 4.9 E 13 15 7 8 1016.7 1015.6 0.0
05/09:00pm 19.3 17.2 9.8 54 5.1 E 11 13 6 7 1016.7 1015.6 0.0
05/08:30pm 20.4 18.6 9.3 49 6.0 ESE 9 11 5 6 1016.4 1015.3 0.0
05/08:00pm 22.2 20.0 9.4 44 7.0 ESE 11 15 6 8 1016.2 1015.1 0.0
05/07:30pm 23.9 20.8 8.7 38 8.3 ESE 15 20 8 11 1015.7 1014.5 0.0
05/07:00pm 25.4 21.9 8.8 35 9.1 E 17 22 9 12 1015.4 1014.2 0.0
05/06:30pm 27.5 23.3 7.4 28 10.9 ESE 19 28 10 15 1015.1 1013.9 0.0
05/06:00pm 28.4 23.8 8.1 28 11.2 ESE 22 32 12 17 1014.8 1013.6 0.0
05/05:30pm 29.0 23.6 8.1 27 11.5 ESE 26 39 14 21 1014.6 1013.4 0.0
05/05:00pm 29.9 24.2 8.3 26 12.0 ESE 28 35 15 19 1014.5 1013.3 0.0
05/04:30pm 30.5 25.3 8.8 26 12.2 ESE 26 37 14 20 1014.3 1013.1 0.0
05/04:00pm 31.5 26.8 9.1 25 12.7 SE 24 39 13 21 1014.3 1013.1 0.0
05/03:30pm 34.1 30.8 4.7 16 15.8 WNW 11 20 6 11 1014.4 1013.2 0.0
05/03:00pm 34.0 30.9 5.5 17 15.5 S 11 24 6 13 1014.6 1013.4 0.0
05/02:30pm 33.2 30.3 4.9 17 15.2 WNW 9 20 5 11 1014.7 1013.5 0.0
05/02:00pm 33.6 30.2 6.0 18 15.1 WNW 13 24 7 13 1014.9 1013.7 0.0

Other Formats:

Comma delimited format used in spreadsheet applications
http://www.bom.gov.au/fwo/IDW60801/IDW60801.95636.axf

JavaScript Object Notation format (JSON) in row-major order
http://www.bom.gov.au/fwo/IDW60801/IDW60801.95636.json